Time;durP1;ratioP1;P1;durP2;ratioP2;P2;SDS_P1;SDS_P2;PMS_P1;PMS_P2;Temp;Humidity;BMP_temperature;BMP_pressure;BME280_temperature;BME280_humidity;BME280_pressure;Samples;Min_cycle;Max_cycle;Signal;HPM_P1;HPM_P2
2021/04/04 00:00:16;;;;;;;28.85;4.50;;;4.50;73.70;;;;;;5071894;28;20393;-75
2021/04/04 00:02:42;;;;;;;27.08;4.20;;;4.40;74.20;;;;;;5090773;28;20371;-74
2021/04/04 00:05:09;;;;;;;27.77;5.25;;;4.40;74.30;;;;;;5090220;28;20775;-75
2021/04/04 00:07:35;;;;;;;28.02;5.28;;;4.50;73.90;;;;;;5072163;28;20402;-74
2021/04/04 00:10:02;;;;;;;25.15;4.63;;;4.40;73.70;;;;;;5072628;28;20432;-74
2021/04/04 00:12:27;;;;;;;26.13;4.80;;;4.40;74.00;;;;;;5090620;28;20788;-74
2021/04/04 00:14:53;;;;;;;27.43;4.40;;;4.50;73.90;;;;;;5105793;28;20374;-75
2021/04/04 00:17:18;;;;;;;28.30;4.97;;;4.40;74.20;;;;;;5090148;28;20378;-75
2021/04/04 00:19:44;;;;;;;22.37;4.10;;;4.50;73.90;;;;;;5090438;28;20449;-74
2021/04/04 00:22:10;;;;;;;26.87;4.70;;;4.40;74.20;;;;;;5072405;28;20382;-74
2021/04/04 00:24:37;;;;;;;25.15;5.28;;;4.50;74.50;;;;;;5090062;28;20838;-74
2021/04/04 00:27:03;;;;;;;23.52;4.57;;;4.50;73.50;;;;;;5089627;28;20475;-74
2021/04/04 00:29:29;;;;;;;27.48;5.60;;;4.50;74.10;;;;;;5076459;28;20453;-74
2021/04/04 00:31:55;;;;;;;25.83;4.83;;;4.50;74.10;;;;;;5094207;28;20468;-74
2021/04/04 00:34:21;;;;;;;24.73;4.33;;;4.40;74.20;;;;;;5094298;28;20381;-74
2021/04/04 00:36:47;;;;;;;25.42;4.70;;;4.60;73.80;;;;;;5093750;28;20374;-74
2021/04/04 00:39:12;;;;;;;25.10;4.63;;;4.60;74.10;;;;;;5094450;28;20431;-75
2021/04/04 00:41:39;;;;;;;21.40;4.27;;;4.60;73.60;;;;;;5093998;28;20967;-74
2021/04/04 00:44:05;;;;;;;20.02;4.28;;;4.60;73.70;;;;;;5094446;28;20506;-74
2021/04/04 00:46:31;;;;;;;29.15;4.80;;;4.50;73.80;;;;;;5109238;28;20455;-74
2021/04/04 00:48:56;;;;;;;25.90;4.47;;;4.50;74.30;;;;;;5093874;28;20718;-74
2021/04/04 00:51:22;;;;;;;22.73;4.35;;;4.50;73.70;;;;;;5107990;28;20461;-74
2021/04/04 00:53:48;;;;;;;26.27;4.47;;;4.50;73.80;;;;;;5094002;28;20461;-75
2021/04/04 00:56:13;;;;;;;23.83;4.88;;;4.60;73.20;;;;;;5094130;28;20413;-74
2021/04/04 00:58:40;;;;;;;34.22;5.20;;;4.50;73.50;;;;;;5093306;28;20369;-74
2021/04/04 01:01:06;;;;;;;25.08;4.47;;;4.50;73.60;;;;;;5093995;28;20378;-73
2021/04/04 01:03:32;;;;;;;23.33;4.72;;;4.60;73.50;;;;;;5093308;28;20723;-75
2021/04/04 01:06:00;;;;;;;22.73;4.78;;;4.70;73.20;;;;;;5075599;28;20402;-74
2021/04/04 01:08:26;;;;;;;19.08;4.20;;;4.60;73.50;;;;;;5093016;28;20439;-74
2021/04/04 01:10:52;;;;;;;29.77;4.50;;;4.60;73.30;;;;;;5075634;28;20377;-75
2021/04/04 01:13:46;;;;;;;22.42;5.28;;;4.40;73.20;;;;;;5074800;28;20406;-74
2021/04/04 01:16:20;;;;;;;22.67;4.85;;;4.50;73.10;;;;;;5091849;28;20413;-74
2021/04/04 01:19:08;;;;;;;27.90;5.13;;;4.50;73.00;;;;;;5089533;28;20374;-75
2021/04/04 01:22:03;;;;;;;21.63;4.25;;;4.60;72.90;;;;;;5073442;28;20528;-74
2021/04/04 01:24:49;;;;;;;18.38;4.07;;;4.50;72.90;;;;;;4991887;28;20402;-75
2021/04/04 01:27:33;;;;;;;25.67;5.07;;;4.50;72.90;;;;;;5097181;28;20878;-74
2021/04/04 01:29:59;;;;;;;21.93;4.00;;;4.50;73.30;;;;;;5090121;28;20409;-75
2021/04/04 01:32:35;;;;;;;20.48;4.20;;;4.50;73.30;;;;;;5093708;28;20362;-74
2021/04/04 01:35:07;;;;;;;20.70;4.93;;;4.50;73.10;;;;;;5071328;28;20414;-75
2021/04/04 01:37:34;;;;;;;24.08;4.50;;;4.60;72.90;;;;;;5092369;28;20392;-74
2021/04/04 01:40:01;;;;;;;27.13;4.97;;;4.70;73.00;;;;;;5092033;28;20374;-74
2021/04/04 01:42:28;;;;;;;28.33;5.05;;;4.80;72.60;;;;;;5092477;28;20374;-75
2021/04/04 01:44:54;;;;;;;27.10;5.72;;;4.70;73.10;;;;;;5092573;28;20926;-74
2021/04/04 01:47:21;;;;;;;18.67;5.40;;;4.70;73.50;;;;;;5091898;28;20410;-74
2021/04/04 01:49:49;;;;;;;18.27;5.20;;;4.80;73.20;;;;;;5092797;28;20456;-75
2021/04/04 01:52:15;;;;;;;36.10;6.47;;;4.60;74.00;;;;;;5093032;28;20377;-75
2021/04/04 01:54:41;;;;;;;28.52;6.05;;;4.50;75.10;;;;;;5093251;28;20414;-75
2021/04/04 01:57:08;;;;;;;24.63;6.23;;;4.70;74.50;;;;;;5074282;28;20378;-75
2021/04/04 01:59:34;;;;;;;31.05;6.65;;;4.50;75.40;;;;;;5093276;28;20382;-75
2021/04/04 02:02:01;;;;;;;23.98;5.68;;;4.50;75.00;;;;;;5092858;28;20482;-75
2021/04/04 02:04:27;;;;;;;28.65;6.63;;;4.50;75.00;;;;;;5108947;28;20378;-74
2021/04/04 02:06:54;;;;;;;25.10;5.40;;;4.60;74.70;;;;;;5092416;28;20410;-75
2021/04/04 02:09:20;;;;;;;22.45;5.72;;;4.50;74.70;;;;;;5092557;28;20370;-75
2021/04/04 02:11:48;;;;;;;26.23;5.67;;;4.50;74.40;;;;;;5092672;28;20385;-75
2021/04/04 02:14:17;;;;;;;27.35;5.43;;;4.60;74.40;;;;;;5092522;28;20755;-74
2021/04/04 02:16:46;;;;;;;28.58;5.57;;;4.40;75.10;;;;;;5092250;28;20387;-75
2021/04/04 02:19:13;;;;;;;26.02;6.45;;;4.70;74.60;;;;;;5108029;28;20378;-74
2021/04/04 02:21:41;;;;;;;24.30;6.47;;;4.40;75.90;;;;;;5074373;28;20965;-75
2021/04/04 02:24:08;;;;;;;24.13;6.03;;;4.50;75.30;;;;;;5074131;28;20409;-74
2021/04/04 02:26:34;;;;;;;26.50;6.05;;;4.50;75.60;;;;;;5092033;28;20398;-76
2021/04/04 02:29:01;;;;;;;25.45;6.00;;;4.40;76.10;;;;;;5092024;28;20462;-74
2021/04/04 02:31:31;;;;;;;27.20;5.95;;;4.70;74.80;;;;;;5074143;28;20428;-75
2021/04/04 02:34:02;;;;;;;27.00;5.97;;;4.70;74.70;;;;;;5107847;28;20465;-74
2021/04/04 02:36:30;;;;;;;29.48;6.03;;;4.60;75.20;;;;;;5091883;28;20409;-74
2021/04/04 02:39:03;;;;;;;27.50;6.00;;;4.50;75.60;;;;;;5073742;28;20719;-75
2021/04/04 02:41:30;;;;;;;29.33;5.10;;;4.70;75.10;;;;;;5091596;28;20362;-75
2021/04/04 02:43:56;;;;;;;18.90;4.85;;;4.70;74.40;;;;;;5091966;28;20436;-79
2021/04/04 02:46:25;;;;;;;25.05;5.10;;;4.70;74.90;;;;;;5073623;28;20402;-75
2021/04/04 02:48:59;;;;;;;19.02;5.50;;;4.50;75.40;;;;;;5107389;28;20401;-75
2021/04/04 02:51:34;;;;;;;26.55;5.75;;;4.40;76.00;;;;;;5090848;28;20409;-74
2021/04/04 02:54:00;;;;;;;31.13;5.95;;;4.40;75.80;;;;;;5091807;28;20366;-75
2021/04/04 02:56:28;;;;;;;27.10;5.78;;;4.50;75.60;;;;;;5073202;28;20378;-74
2021/04/04 02:58:58;;;;;;;28.77;5.50;;;4.60;75.60;;;;;;5073072;28;20371;-74
2021/04/04 03:01:28;;;;;;;18.13;5.22;;;4.30;76.10;;;;;;5091705;28;20431;-74
2021/04/04 03:03:54;;;;;;;20.27;5.60;;;4.40;76.10;;;;;;5091374;28;20378;-75
2021/04/04 03:06:21;;;;;;;20.80;5.38;;;4.30;75.60;;;;;;5091292;28;20483;-74
2021/04/04 03:08:48;;;;;;;25.97;5.03;;;4.30;76.20;;;;;;5106082;28;20439;-74
2021/04/04 03:11:17;;;;;;;24.42;5.60;;;4.30;76.00;;;;;;5091584;28;20405;-75
2021/04/04 03:13:52;;;;;;;22.60;5.50;;;4.20;76.40;;;;;;5106713;28;20882;-75
2021/04/04 03:16:22;;;;;;;27.63;5.57;;;4.60;75.40;;;;;;5091526;28;20769;-74
2021/04/04 03:18:50;;;;;;;27.20;5.82;;;4.30;75.50;;;;;;5090501;28;20398;-75
2021/04/04 03:21:17;;;;;;;24.90;5.13;;;4.30;74.90;;;;;;5107039;28;20456;-74
2021/04/04 03:23:44;;;;;;;27.50;5.72;;;4.40;74.50;;;;;;5072839;28;20378;-75
2021/04/04 03:26:11;;;;;;;22.53;5.17;;;4.40;74.70;;;;;;5090821;28;20402;-75
2021/04/04 03:28:38;;;;;;;27.23;5.50;;;4.30;75.20;;;;;;5090854;28;20490;-74
2021/04/04 03:31:04;;;;;;;29.15;5.25;;;4.40;75.00;;;;;;5106427;28;20374;-75
2021/04/04 03:33:30;;;;;;;26.75;5.68;;;4.40;75.20;;;;;;5091243;28;20413;-74
2021/04/04 03:35:57;;;;;;;24.67;6.50;;;4.40;75.40;;;;;;5106666;28;20378;-74
2021/04/04 03:38:26;;;;;;;23.85;6.13;;;4.40;75.70;;;;;;5106357;28;20524;-74
2021/04/04 03:40:53;;;;;;;29.73;5.47;;;4.40;75.40;;;;;;5090874;28;20840;-75
2021/04/04 03:43:23;;;;;;;24.83;5.13;;;4.50;75.40;;;;;;5073002;28;20886;-74
2021/04/04 03:45:54;;;;;;;22.05;4.85;;;4.40;75.60;;;;;;5090560;28;20860;-76
2021/04/04 03:48:21;;;;;;;24.15;5.57;;;4.50;75.20;;;;;;5090333;28;20374;-75
2021/04/04 03:50:48;;;;;;;21.27;5.13;;;4.70;74.10;;;;;;5090851;28;20386;-76
2021/04/04 03:53:19;;;;;;;22.75;5.32;;;4.60;74.50;;;;;;5090730;28;20373;-74
2021/04/04 03:55:47;;;;;;;30.73;6.00;;;4.70;74.50;;;;;;5091119;28;20384;-74
2021/04/04 03:58:13;;;;;;;22.52;5.63;;;4.40;74.90;;;;;;5090157;28;20370;-75
2021/04/04 04:00:40;;;;;;;32.83;5.97;;;4.40;75.40;;;;;;5090947;28;20745;-74
2021/04/04 04:03:07;;;;;;;24.48;4.80;;;4.20;75.70;;;;;;5090232;28;20461;-75
2021/04/04 04:05:33;;;;;;;26.23;4.97;;;4.60;75.10;;;;;;5090667;28;20429;-74
2021/04/04 04:08:00;;;;;;;29.02;5.53;;;4.30;74.90;;;;;;5089936;28;20374;-74
2021/04/04 04:10:27;;;;;;;28.25;6.40;;;4.40;75.10;;;;;;5091029;28;20394;-74
2021/04/04 04:12:53;;;;;;;30.10;5.20;;;4.30;75.20;;;;;;5090401;28;20452;-74
2021/04/04 04:15:20;;;;;;;24.55;4.22;;;4.40;73.00;;;;;;5072309;28;20399;-74
2021/04/04 04:17:47;;;;;;;22.65;4.78;;;4.40;73.30;;;;;;5089787;28;20719;-75
2021/04/04 04:20:14;;;;;;;28.98;5.05;;;4.30;73.00;;;;;;5072228;28;20862;-75
2021/04/04 04:22:40;;;;;;;20.83;4.88;;;4.40;72.50;;;;;;5090317;28;20928;-74
2021/04/04 04:25:07;;;;;;;22.35;4.65;;;4.30;72.10;;;;;;5090327;28;20397;-75
2021/04/04 04:27:35;;;;;;;21.42;4.47;;;4.20;72.80;;;;;;5089927;28;20441;-75
2021/04/04 04:30:03;;;;;;;23.40;5.10;;;4.40;72.20;;;;;;5105953;28;20378;-74
2021/04/04 04:32:32;;;;;;;20.98;4.20;;;4.40;71.70;;;;;;5089936;28;20393;-74
2021/04/04 04:35:00;;;;;;;19.63;4.80;;;4.30;71.50;;;;;;5090002;28;20378;-74
2021/04/04 04:37:27;;;;;;;23.40;4.80;;;4.30;71.40;;;;;;5090589;28;20389;-74
2021/04/04 04:39:52;;;;;;;29.08;5.55;;;4.40;71.50;;;;;;5089739;28;20762;-74
2021/04/04 04:42:19;;;;;;;28.07;6.57;;;4.40;71.70;;;;;;5105776;28;20377;-74
2021/04/04 04:44:47;;;;;;;23.85;7.78;;;4.40;71.80;;;;;;5090386;28;20362;-74
2021/04/04 04:47:13;;;;;;;36.97;10.93;;;4.40;71.00;;;;;;5105227;28;20406;-74
2021/04/04 04:49:43;;;;;;;33.40;10.10;;;4.40;70.20;;;;;;5090294;28;20372;-75
2021/04/04 04:52:09;;;;;;;28.42;9.80;;;4.40;71.10;;;;;;5071762;28;20389;-74
2021/04/04 04:54:34;;;;;;;23.97;7.17;;;4.40;71.90;;;;;;5090210;28;20737;-75
2021/04/04 04:57:01;;;;;;;18.27;5.63;;;4.40;70.60;;;;;;5105390;28;20408;-74
2021/04/04 04:59:28;;;;;;;23.27;5.38;;;4.40;70.70;;;;;;5090233;28;20378;-74
2021/04/04 05:01:54;;;;;;;27.87;5.10;;;4.30;71.80;;;;;;5071785;28;20949;-74
2021/04/04 05:04:20;;;;;;;19.50;4.53;;;4.30;71.50;;;;;;5090189;28;20714;-74
2021/04/04 05:06:47;;;;;;;21.70;5.20;;;4.30;71.70;;;;;;5089460;28;20432;-74
2021/04/04 05:09:13;;;;;;;24.80;5.68;;;4.30;71.50;;;;;;5090066;28;20397;-75
2021/04/04 05:11:45;;;;;;;29.70;4.50;;;4.30;71.40;;;;;;5071954;28;20388;-75
2021/04/04 05:14:12;;;;;;;17.70;4.40;;;4.30;71.60;;;;;;5091409;28;20374;-74
2021/04/04 05:16:38;;;;;;;29.67;5.07;;;4.30;71.60;;;;;;5074902;28;20378;-74
2021/04/04 05:19:07;;;;;;;25.02;4.38;;;4.40;71.80;;;;;;5093733;28;20893;-74
2021/04/04 05:21:33;;;;;;;18.35;3.70;;;4.30;71.20;;;;;;5093585;28;20358;-74
2021/04/04 05:24:00;;;;;;;22.70;4.88;;;4.40;70.90;;;;;;5093045;28;20377;-75
2021/04/04 05:26:32;;;;;;;19.45;5.05;;;4.30;71.50;;;;;;5093241;28;20425;-75
2021/04/04 05:29:02;;;;;;;26.90;4.60;;;4.40;71.60;;;;;;5093106;28;20482;-75
2021/04/04 05:31:28;;;;;;;19.55;4.68;;;4.30;71.80;;;;;;5074640;28;20382;-75
2021/04/04 05:33:54;;;;;;;21.20;7.38;;;4.40;71.50;;;;;;5093129;28;20393;-75
2021/04/04 05:36:20;;;;;;;21.35;7.30;;;4.30;71.00;;;;;;5074902;28;20392;-76
2021/04/04 05:38:46;;;;;;;29.40;9.20;;;4.30;70.10;;;;;;5092768;28;20362;-74
2021/04/04 05:41:12;;;;;;;33.67;7.80;;;4.20;70.10;;;;;;5092383;28;20374;-74
2021/04/04 05:43:44;;;;;;;24.23;7.68;;;4.30;70.60;;;;;;5092971;28;20370;-75
2021/04/04 05:46:27;;;;;;;25.52;7.10;;;4.30;70.40;;;;;;5092160;28;20475;-74
2021/04/04 05:49:04;;;;;;;30.57;7.17;;;4.30;70.40;;;;;;5074726;28;20862;-75
2021/04/04 05:51:39;;;;;;;23.40;6.70;;;4.40;70.30;;;;;;5074340;28;20873;-75
2021/04/04 05:54:17;;;;;;;28.80;6.03;;;4.40;70.00;;;;;;5074774;28;20398;-75
2021/04/04 05:57:11;;;;;;;22.27;5.95;;;4.40;70.90;;;;;;5092506;28;20531;-74
2021/04/04 05:59:45;;;;;;;29.77;6.23;;;4.50;70.50;;;;;;5092784;28;20518;-75
2021/04/04 06:02:25;;;;;;;24.27;6.85;;;4.40;70.10;;;;;;5058298;28;20390;-74
2021/04/04 06:05:21;;;;;;;24.42;6.60;;;4.40;69.80;;;;;;5092472;28;20369;-74
2021/04/04 06:08:32;;;;;;;22.45;6.53;;;4.50;69.80;;;;;;5107885;28;20437;-74
2021/04/04 06:11:26;;;;;;;24.45;6.43;;;4.60;70.10;;;;;;5092737;28;20366;-74
2021/04/04 06:14:00;;;;;;;25.67;7.00;;;4.50;70.60;;;;;;5092383;28;20971;-75
2021/04/04 06:16:50;;;;;;;21.00;6.20;;;4.60;70.40;;;;;;5091616;28;20385;-74
2021/04/04 06:19:39;;;;;;;22.95;5.93;;;4.40;70.30;;;;;;5092019;28;20750;-74
2021/04/04 06:22:16;;;;;;;20.90;6.93;;;4.40;70.10;;;;;;5092022;28;20370;-74
2021/04/04 06:25:09;;;;;;;24.85;6.30;;;4.50;71.50;;;;;;5073809;28;20388;-75
2021/04/04 06:27:49;;;;;;;24.20;5.78;;;4.50;71.50;;;;;;5073323;28;20876;-74
2021/04/04 06:30:46;;;;;;;22.23;5.57;;;4.60;70.40;;;;;;5092296;28;20405;-74
2021/04/04 06:33:26;;;;;;;25.73;7.90;;;4.60;70.90;;;;;;5091929;28;20734;-75
2021/04/04 06:36:04;;;;;;;27.23;8.10;;;4.50;69.60;;;;;;5091438;28;20422;-75
2021/04/04 06:39:03;;;;;;;22.05;8.68;;;4.50;70.30;;;;;;5091572;28;20374;-74
2021/04/04 06:41:48;;;;;;;21.88;7.80;;;4.60;70.40;;;;;;5073458;28;20398;-74
2021/04/04 06:44:13;;;;;;;19.60;6.50;;;4.60;71.30;;;;;;5090840;28;20382;-75
2021/04/04 06:47:02;;;;;;;17.05;7.55;;;4.60;71.00;;;;;;5091358;28;20402;-74
2021/04/04 06:49:45;;;;;;;20.00;8.05;;;4.50;70.00;;;;;;5073643;28;20870;-75
2021/04/04 06:52:50;;;;;;;19.42;6.82;;;4.50;70.50;;;;;;5090313;28;20851;-74
2021/04/04 06:55:41;;;;;;;23.90;6.35;;;4.70;70.60;;;;;;5073889;28;20391;-74
2021/04/04 06:58:25;;;;;;;29.05;10.25;;;4.80;70.80;;;;;;5091137;28;20374;-74
2021/04/04 07:01:05;;;;;;;28.90;10.40;;;4.70;69.20;;;;;;5091922;28;20381;-74
2021/04/04 07:03:41;;;;;;;25.70;9.73;;;4.60;70.20;;;;;;5091465;28;20397;-74
2021/04/04 07:06:25;;;;;;;24.05;8.98;;;4.70;70.50;;;;;;5073485;28;20781;-74
2021/04/04 07:09:07;;;;;;;19.30;7.72;;;4.60;70.30;;;;;;5091084;28;20866;-75
2021/04/04 07:12:14;;;;;;;20.83;7.57;;;4.60;70.70;;;;;;5091406;28;20712;-75
2021/04/04 07:15:08;;;;;;;20.58;8.05;;;4.80;71.00;;;;;;5090695;28;20393;-74
2021/04/04 07:17:55;;;;;;;18.55;6.75;;;4.70;70.90;;;;;;5080472;28;20718;-74
2021/04/04 07:20:44;;;;;;;21.95;8.55;;;4.80;70.50;;;;;;5072936;28;20381;-74
2021/04/04 07:23:49;;;;;;;28.02;6.78;;;4.70;71.10;;;;;;5091684;28;20453;-74
2021/04/04 07:26:52;;;;;;;16.88;5.75;;;4.70;71.10;;;;;;5049697;28;20425;-74
2021/04/04 07:29:55;;;;;;;15.82;5.43;;;4.70;71.00;;;;;;5090988;28;20378;-74
2021/04/04 07:32:38;;;;;;;16.77;5.10;;;4.80;71.10;;;;;;5091132;28;20381;-75
2021/04/04 07:35:20;;;;;;;19.90;5.20;;;4.70;71.30;;;;;;5090879;28;20370;-74
2021/04/04 07:38:08;;;;;;;19.30;4.50;;;4.80;72.40;;;;;;5090321;28;20390;-74
2021/04/04 07:40:49;;;;;;;15.32;4.15;;;4.70;72.50;;;;;;5072459;28;20390;-74
2021/04/04 07:43:23;;;;;;;19.92;4.70;;;4.90;73.30;;;;;;5072616;28;20397;-75
2021/04/04 07:46:13;;;;;;;15.63;4.28;;;4.90;72.20;;;;;;5090703;28;20782;-74
2021/04/04 07:49:16;;;;;;;14.18;4.07;;;4.90;73.20;;;;;;5090183;28;20464;-74
2021/04/04 07:51:48;;;;;;;14.05;4.70;;;4.70;73.20;;;;;;5091142;28;20374;-74
2021/04/04 07:54:17;;;;;;;23.02;7.43;;;4.90;73.10;;;;;;5090566;28;20907;-74
2021/04/04 07:57:06;;;;;;;26.77;4.88;;;4.90;73.00;;;;;;5071979;28;20393;-74
2021/04/04 07:59:41;;;;;;;20.10;5.37;;;4.90;73.20;;;;;;5072674;28;20410;-74
2021/04/04 08:02:27;;;;;;;23.10;5.82;;;4.90;73.00;;;;;;5090432;28;20374;-74
2021/04/04 08:04:54;;;;;;;18.20;5.28;;;4.90;73.90;;;;;;5090343;28;20382;-75
2021/04/04 08:07:22;;;;;;;20.98;6.90;;;4.90;73.20;;;;;;5071623;28;20874;-74
2021/04/04 08:10:04;;;;;;;14.20;6.78;;;4.90;73.60;;;;;;5090023;28;20469;-74
2021/04/04 08:12:34;;;;;;;23.48;9.48;;;4.90;73.60;;;;;;5090581;28;20405;-75
2021/04/04 08:15:17;;;;;;;23.17;9.52;;;4.90;72.90;;;;;;5090301;28;20381;-74
2021/04/04 08:17:42;;;;;;;19.27;9.15;;;4.90;73.70;;;;;;5071989;28;20394;-75
2021/04/04 08:20:23;;;;;;;24.23;9.75;;;4.90;73.70;;;;;;5072096;28;20395;-74
2021/04/04 08:22:57;;;;;;;23.58;11.02;;;4.90;73.40;;;;;;5090182;28;20378;-74
2021/04/04 08:25:30;;;;;;;24.17;11.55;;;4.90;73.30;;;;;;5090586;28;20386;-75
2021/04/04 08:28:01;;;;;;;21.30;11.38;;;4.80;73.50;;;;;;5071640;28;20410;-75
2021/04/04 08:30:56;;;;;;;18.23;10.65;;;4.90;72.90;;;;;;5090099;28;20382;-74
2021/04/04 08:33:36;;;;;;;25.73;9.40;;;5.00;72.80;;;;;;5069403;28;20759;-74
2021/04/04 08:36:03;;;;;;;14.82;7.22;;;4.90;73.20;;;;;;5072275;28;20377;-74
2021/04/04 08:38:35;;;;;;;20.08;7.43;;;4.90;73.90;;;;;;5071563;28;20414;-74
2021/04/04 08:41:03;;;;;;;17.97;6.17;;;4.90;74.00;;;;;;5089940;28;20374;-74
2021/04/04 08:43:29;;;;;;;14.95;7.00;;;5.00;73.90;;;;;;5072236;28;20386;-74
2021/04/04 08:46:18;;;;;;;18.50;6.22;;;4.90;73.60;;;;;;5089936;28;20413;-75
2021/04/04 08:48:45;;;;;;;18.45;6.03;;;4.90;73.90;;;;;;5072711;28;20432;-75
2021/04/04 08:51:13;;;;;;;13.13;5.63;;;4.90;74.30;;;;;;5075867;28;20440;-74
2021/04/04 08:53:44;;;;;;;10.20;5.57;;;4.90;74.60;;;;;;5094308;28;20378;-74
2021/04/04 08:56:13;;;;;;;12.70;6.37;;;5.10;73.90;;;;;;5094000;28;20378;-75
2021/04/04 08:58:41;;;;;;;14.98;6.28;;;5.00;74.30;;;;;;5075469;28;20386;-74
2021/04/04 09:01:17;;;;;;;15.95;5.82;;;4.90;74.30;;;;;;5093741;28;20464;-74
2021/04/04 09:03:48;;;;;;;13.32;5.07;;;5.00;74.60;;;;;;5094114;28;20370;-74
2021/04/04 09:06:16;;;;;;;12.07;5.00;;;5.10;73.90;;;;;;5075517;28;20776;-74
2021/04/04 09:08:42;;;;;;;9.93;3.92;;;5.20;73.40;;;;;;5093248;28;20373;-75
2021/04/04 09:11:09;;;;;;;13.33;5.30;;;5.10;73.30;;;;;;5075676;28;20440;-74
2021/04/04 09:13:36;;;;;;;13.93;6.40;;;5.10;73.80;;;;;;5093419;28;20835;-75
2021/04/04 09:16:16;;;;;;;16.98;6.45;;;5.10;73.90;;;;;;5093818;28;20376;-74
2021/04/04 09:18:49;;;;;;;15.18;5.95;;;5.10;74.00;;;;;;5093435;28;20362;-74
2021/04/04 09:21:15;;;;;;;13.80;6.80;;;5.20;74.00;;;;;;5093858;28;20421;-75
2021/04/04 09:23:44;;;;;;;24.20;7.73;;;5.10;73.10;;;;;;5075364;28;20379;-74
2021/04/04 09:26:10;;;;;;;23.15;9.15;;;5.10;74.00;;;;;;5093463;28;20414;-74
2021/04/04 09:28:40;;;;;;;16.40;6.57;;;4.90;73.90;;;;;;5093421;28;20477;-74
2021/04/04 09:31:16;;;;;;;16.45;6.88;;;5.10;74.30;;;;;;5093582;28;20432;-75
2021/04/04 09:33:43;;;;;;;12.90;4.85;;;5.10;73.90;;;;;;5094021;28;20370;-74
2021/04/04 09:36:08;;;;;;;9.77;4.03;;;5.10;74.30;;;;;;5075127;28;20390;-74
2021/04/04 09:38:37;;;;;;;14.53;5.70;;;5.20;74.00;;;;;;5074821;28;20453;-75
2021/04/04 09:41:04;;;;;;;14.55;6.43;;;5.30;74.10;;;;;;5092913;28;20495;-74
2021/04/04 09:43:38;;;;;;;12.70;5.47;;;5.30;73.60;;;;;;5075119;28;20409;-74
2021/04/04 09:46:05;;;;;;;14.68;5.28;;;5.40;73.90;;;;;;5092958;28;20867;-75
2021/04/04 09:48:37;;;;;;;14.00;5.82;;;5.30;74.10;;;;;;5074255;28;20378;-74
2021/04/04 09:51:09;;;;;;;18.95;7.68;;;5.40;73.40;;;;;;5092962;28;20370;-75
2021/04/04 09:53:36;;;;;;;18.02;8.93;;;5.40;73.70;;;;;;5092776;28;20390;-74
2021/04/04 09:56:12;;;;;;;17.88;7.38;;;5.30;73.70;;;;;;5093017;28;20382;-74
2021/04/04 09:58:46;;;;;;;14.93;6.72;;;5.40;73.50;;;;;;5092495;28;20371;-74
2021/04/04 10:01:23;;;;;;;12.27;6.07;;;5.40;73.40;;;;;;5074535;28;20472;-74
2021/04/04 10:03:59;;;;;;;15.23;6.03;;;5.30;74.30;;;;;;5092611;28;20382;-74
2021/04/04 10:06:26;;;;;;;15.03;6.30;;;5.40;73.00;;;;;;5092348;28;20841;-74
2021/04/04 10:08:56;;;;;;;13.45;5.68;;;5.40;73.80;;;;;;5074408;28;20880;-74
2021/04/04 10:11:23;;;;;;;11.63;5.20;;;5.30;74.10;;;;;;5092724;28;20467;-74
2021/04/04 10:13:48;;;;;;;18.52;7.20;;;5.40;74.00;;;;;;5074543;28;20393;-74
2021/04/04 10:16:23;;;;;;;14.27;6.60;;;5.30;74.10;;;;;;5092310;28;20383;-74
2021/04/04 10:19:09;;;;;;;19.48;8.45;;;5.30;74.50;;;;;;5074199;28;20726;-75
2021/04/04 10:21:38;;;;;;;19.40;10.15;;;5.30;75.40;;;;;;5092054;28;20382;-74
2021/04/04 10:24:23;;;;;;;15.52;8.80;;;5.30;75.80;;;;;;5092458;28;20367;-75
2021/04/04 10:27:09;;;;;;;20.98;10.10;;;5.40;75.20;;;;;;5092045;28;20745;-75
2021/04/04 10:29:34;;;;;;;22.20;10.63;;;5.40;75.50;;;;;;5091650;28;20453;-74
2021/04/04 10:32:00;;;;;;;24.43;12.23;;;5.40;75.10;;;;;;5091978;28;20402;-74
2021/04/04 10:34:25;;;;;;;26.40;13.43;;;5.20;75.60;;;;;;5092403;28;20374;-75
2021/04/04 10:37:01;;;;;;;21.88;11.00;;;5.30;76.40;;;;;;5091810;28;20420;-74
2021/04/04 10:39:27;;;;;;;24.83;10.48;;;5.30;75.40;;;;;;5091884;28;20373;-74
2021/04/04 10:41:52;;;;;;;20.30;10.75;;;5.40;75.70;;;;;;5092029;28;20385;-74
2021/04/04 10:44:25;;;;;;;24.67;12.55;;;5.40;75.70;;;;;;5073710;28;20414;-74
2021/04/04 10:46:50;;;;;;;23.83;10.85;;;5.40;75.10;;;;;;5072970;28;20394;-74
2021/04/04 10:49:16;;;;;;;22.90;9.02;;;5.50;75.70;;;;;;5091965;28;20375;-75
2021/04/04 10:51:42;;;;;;;19.10;7.30;;;5.50;76.20;;;;;;5073468;28;20378;-74
2021/04/04 10:54:08;;;;;;;16.87;7.10;;;5.60;75.10;;;;;;5073801;28;20721;-74
2021/04/04 10:56:35;;;;;;;14.10;6.60;;;5.60;74.20;;;;;;5073040;28;20390;-74
2021/04/04 10:59:03;;;;;;;13.68;5.97;;;5.40;75.30;;;;;;5091773;28;20374;-74
2021/04/04 11:01:32;;;;;;;14.00;5.70;;;5.50;75.30;;;;;;5073373;28;20425;-74
2021/04/04 11:03:58;;;;;;;15.52;6.15;;;5.70;75.30;;;;;;5091967;28;20366;-74
2021/04/04 11:06:24;;;;;;;16.88;5.65;;;5.70;74.30;;;;;;5072791;28;20471;-74
2021/04/04 11:08:50;;;;;;;18.57;8.47;;;5.60;74.70;;;;;;5091730;28;20366;-74
2021/04/04 11:11:16;;;;;;;19.60;9.10;;;5.60;74.10;;;;;;5072611;28;20378;-75
2021/04/04 11:13:45;;;;;;;26.80;9.88;;;5.60;73.90;;;;;;5091950;28;20366;-74
2021/04/04 11:16:12;;;;;;;24.27;13.07;;;5.90;73.60;;;;;;5073324;28;20386;-74
2021/04/04 11:18:46;;;;;;;29.73;14.67;;;5.90;72.90;;;;;;5091123;28;20645;-74
2021/04/04 11:21:17;;;;;;;28.03;14.27;;;5.80;72.80;;;;;;5073396;28;20382;-75
2021/04/04 11:23:44;;;;;;;22.80;11.48;;;6.00;73.30;;;;;;5091272;28;20400;-74
2021/04/04 11:26:31;;;;;;;26.10;11.43;;;5.90;72.70;;;;;;5091188;28;20471;-75
2021/04/04 11:29:06;;;;;;;25.52;11.40;;;6.20;73.80;;;;;;5090946;28;20386;-74
2021/04/04 11:31:31;;;;;;;20.92;9.95;;;6.20;71.60;;;;;;5091042;28;20821;-74
2021/04/04 11:34:32;;;;;;;23.95;10.25;;;6.10;72.40;;;;;;5090962;28;20461;-74
2021/04/04 11:37:17;;;;;;;20.80;9.82;;;6.20;72.40;;;;;;5090396;28;20381;-74
2021/04/04 11:40:29;;;;;;;27.40;14.07;;;6.00;71.90;;;;;;5071239;28;20401;-75
2021/04/04 11:43:29;;;;;;;30.58;14.68;;;6.00;72.20;;;;;;5069963;28;20987;-74
2021/04/04 11:45:54;;;;;;;31.83;15.10;;;6.00;72.70;;;;;;5090399;28;20851;-74
2021/04/04 11:48:28;;;;;;;29.67;13.77;;;5.90;72.60;;;;;;5090201;28;20370;-75
2021/04/04 11:50:54;;;;;;;26.67;12.93;;;6.00;72.90;;;;;;5090777;28;20465;-74
2021/04/04 11:53:45;;;;;;;26.92;13.05;;;6.00;71.80;;;;;;5090779;28;20374;-74
2021/04/04 11:56:46;;;;;;;24.27;11.90;;;6.10;72.80;;;;;;5072360;28;20447;-75
2021/04/04 11:59:13;;;;;;;23.27;11.60;;;6.10;72.30;;;;;;5072218;28;20402;-75
2021/04/04 12:01:39;;;;;;;22.02;10.80;;;6.30;71.70;;;;;;5090400;28;20461;-74
2021/04/04 12:04:21;;;;;;;17.70;9.70;;;6.20;72.30;;;;;;5072459;28;20453;-75
2021/04/04 12:07:09;;;;;;;20.90;9.35;;;6.10;72.60;;;;;;5090237;28;20916;-74
2021/04/04 12:09:36;;;;;;;24.35;10.23;;;6.10;72.80;;;;;;5090502;28;20382;-75
2021/04/04 12:12:03;;;;;;;24.17;11.43;;;6.10;74.20;;;;;;5071781;28;20389;-75
2021/04/04 12:14:29;;;;;;;23.90;13.73;;;6.20;72.90;;;;;;5072287;28;20378;-75
2021/04/04 12:16:55;;;;;;;32.22;13.45;;;6.30;73.10;;;;;;5090205;28;20374;-75
2021/04/04 12:19:41;;;;;;;28.85;13.68;;;6.50;72.20;;;;;;5090472;28;20382;-75
2021/04/04 12:22:06;;;;;;;28.40;14.25;;;6.40;71.70;;;;;;5090631;28;20660;-75
2021/04/04 12:24:43;;;;;;;29.23;14.87;;;6.60;71.70;;;;;;5076095;28;20862;-75
2021/04/04 12:27:11;;;;;;;25.67;13.95;;;6.60;71.40;;;;;;5092916;28;20412;-75
2021/04/04 12:29:47;;;;;;;22.83;12.53;;;6.90;71.20;;;;;;5094435;28;20366;-75
2021/04/04 12:32:30;;;;;;;21.50;11.05;;;7.10;70.50;;;;;;5075989;28;20421;-75
2021/04/04 12:34:58;;;;;;;29.80;13.20;;;6.70;70.50;;;;;;5094018;28;20741;-75
2021/04/04 12:37:26;;;;;;;28.20;12.23;;;6.60;69.70;;;;;;5093835;28;20444;-75
2021/04/04 12:39:53;;;;;;;27.60;11.95;;;6.70;70.90;;;;;;5093577;28;20381;-75
2021/04/04 12:42:30;;;;;;;31.08;13.82;;;6.70;70.20;;;;;;5094086;28;20786;-75
2021/04/04 12:44:56;;;;;;;29.75;13.95;;;6.80;69.30;;;;;;5093920;28;20440;-75
2021/04/04 12:47:24;;;;;;;32.30;14.70;;;7.00;70.20;;;;;;5093616;28;20401;-76
2021/04/04 12:50:03;;;;;;;29.63;14.90;;;6.80;68.20;;;;;;5075453;28;20447;-76
2021/04/04 12:52:38;;;;;;;31.47;15.77;;;6.90;69.30;;;;;;5092566;28;20875;-76
2021/04/04 12:55:21;;;;;;;36.85;17.35;;;6.90;69.50;;;;;;5075218;28;20478;-76
2021/04/04 12:58:00;;;;;;;40.05;20.83;;;6.70;70.70;;;;;;5074952;28;20394;-76
2021/04/04 13:00:37;;;;;;;42.90;19.77;;;6.80;70.80;;;;;;5092407;28;20692;-76
2021/04/04 13:03:05;;;;;;;39.55;19.30;;;6.60;70.00;;;;;;5074537;28;20861;-76
2021/04/04 13:05:36;;;;;;;37.70;19.23;;;6.70;69.30;;;;;;5073890;28;20482;-76
2021/04/04 13:08:19;;;;;;;36.97;17.83;;;6.70;69.40;;;;;;5091872;28;20535;-76
2021/04/04 13:10:50;;;;;;;33.35;18.85;;;6.90;68.40;;;;;;5092052;28;20443;-76
2021/04/04 13:13:21;;;;;;;40.83;20.17;;;6.90;68.60;;;;;;5092783;28;20866;-75